Time;durP1;ratioP1;P1;durP2;ratioP2;P2;SDS_P1;SDS_P2;PMS_P1;PMS_P2;Temp;Humidity;BMP_temperature;BMP_pressure;BME280_temperature;BME280_humidity;BME280_pressure;Samples;Min_cycle;Max_cycle;Signal;HPM_P1;HPM_P2
2023/04/17 00:00:25;;;;;;;25.30;14.73;;;10.40;99.90;;;;;;5056985;28;20551;-70
2023/04/17 00:03:12;;;;;;;21.37;13.97;;;10.40;99.90;;;;;;5055430;28;22060;-70
2023/04/17 00:05:58;;;;;;;19.10;13.80;;;10.40;99.90;;;;;;5058889;28;20498;-70
2023/04/17 00:08:45;;;;;;;19.27;14.53;;;10.40;99.90;;;;;;5058068;28;20481;-69
2023/04/17 00:11:30;;;;;;;18.40;14.30;;;10.40;99.90;;;;;;5058516;28;20479;-70
2023/04/17 00:14:16;;;;;;;22.93;15.30;;;10.40;99.90;;;;;;5061019;28;20433;-68
2023/04/17 00:17:01;;;;;;;19.43;15.03;;;10.40;99.90;;;;;;5052573;28;20572;-70
2023/04/17 00:19:49;;;;;;;19.80;13.73;;;10.40;99.90;;;;;;5061082;28;20452;-69
2023/04/17 00:22:34;;;;;;;18.27;13.90;;;10.40;99.90;;;;;;5056109;28;20579;-70
2023/04/17 00:25:21;;;;;;;21.57;14.73;;;10.40;99.90;;;;;;5057823;28;20771;-69
2023/04/17 00:28:07;;;;;;;18.60;13.37;;;10.40;99.90;;;;;;5053364;28;20468;-70
2023/04/17 00:30:53;;;;;;;19.90;14.40;;;10.40;99.90;;;;;;5058933;28;20543;-69
2023/04/17 00:33:38;;;;;;;16.60;13.07;;;10.30;99.90;;;;;;5055968;28;20437;-70
2023/04/17 00:36:24;;;;;;;16.30;13.40;;;10.30;99.90;;;;;;5067019;28;20958;-70
2023/04/17 00:39:09;;;;;;;18.53;12.70;;;10.30;99.90;;;;;;5065234;28;20475;-70
2023/04/17 00:41:57;;;;;;;20.13;13.07;;;10.20;99.90;;;;;;5054270;28;20531;-70
2023/04/17 00:44:42;;;;;;;17.23;13.50;;;10.20;99.90;;;;;;5062689;28;20434;-70
2023/04/17 00:47:28;;;;;;;16.63;13.70;;;10.10;99.90;;;;;;5061828;28;20482;-70
2023/04/17 00:50:14;;;;;;;17.83;13.47;;;10.20;99.90;;;;;;5060949;28;20481;-70
2023/04/17 00:53:01;;;;;;;16.70;12.93;;;10.20;99.90;;;;;;5062235;28;20465;-70
2023/04/17 00:55:50;;;;;;;17.80;13.23;;;10.20;99.90;;;;;;5058862;28;20430;-69
2023/04/17 00:58:37;;;;;;;19.87;14.83;;;10.20;99.90;;;;;;5061620;28;20467;-70
2023/04/17 01:01:23;;;;;;;19.33;14.00;;;10.20;99.90;;;;;;5056479;28;20452;-70
2023/04/17 01:04:09;;;;;;;19.73;13.80;;;10.20;99.90;;;;;;5057510;28;20671;-70
2023/04/17 01:06:55;;;;;;;17.83;13.27;;;10.20;99.90;;;;;;5056551;28;20437;-69
2023/04/17 01:09:41;;;;;;;22.80;13.80;;;10.10;99.90;;;;;;5055144;28;20469;-68
2023/04/17 01:12:27;;;;;;;19.13;13.30;;;10.20;99.90;;;;;;5054147;28;20798;-67
2023/04/17 01:15:14;;;;;;;21.20;14.70;;;10.20;99.90;;;;;;5058004;28;20530;-71
2023/04/17 01:18:00;;;;;;;20.40;16.27;;;10.10;99.90;;;;;;5056936;28;21064;-70
2023/04/17 01:20:46;;;;;;;18.07;13.70;;;10.10;99.90;;;;;;5053445;28;20439;-70
2023/04/17 01:23:43;;;;;;;17.57;13.93;;;10.10;99.90;;;;;;5060570;28;20882;-70
2023/04/17 01:26:32;;;;;;;20.40;14.17;;;10.10;99.90;;;;;;5057979;28;20708;-70
2023/04/17 01:29:17;;;;;;;17.87;13.50;;;10.00;99.90;;;;;;5051658;28;20600;-70
2023/04/17 01:32:03;;;;;;;19.30;14.43;;;10.10;99.90;;;;;;5055053;28;20453;-71
2023/04/17 01:34:48;;;;;;;18.70;13.70;;;10.00;99.90;;;;;;5059826;28;20560;-71
2023/04/17 01:37:34;;;;;;;17.20;13.40;;;10.00;99.90;;;;;;5056972;28;20493;-70
2023/04/17 01:40:20;;;;;;;17.47;13.30;;;10.00;99.90;;;;;;5049761;28;21216;-70
2023/04/17 01:43:07;;;;;;;20.97;14.10;;;10.00;99.90;;;;;;5054306;28;20656;-68
2023/04/17 01:45:52;;;;;;;18.47;14.50;;;10.00;99.90;;;;;;5051992;28;20444;-69
2023/04/17 01:48:38;;;;;;;22.87;15.07;;;10.00;99.90;;;;;;5052994;28;21110;-70
2023/04/17 01:51:24;;;;;;;19.30;14.20;;;10.00;99.90;;;;;;5053321;28;20439;-70
2023/04/17 01:54:09;;;;;;;17.63;13.93;;;10.10;99.90;;;;;;5055703;28;20404;-71
2023/04/17 01:56:55;;;;;;;16.50;12.43;;;10.00;99.90;;;;;;5049416;28;20462;-70
2023/04/17 01:59:43;;;;;;;17.00;13.27;;;10.00;99.90;;;;;;5052623;28;20525;-69
2023/04/17 02:02:29;;;;;;;25.03;14.27;;;10.00;99.90;;;;;;5059251;28;20444;-69
2023/04/17 02:05:14;;;;;;;18.13;14.17;;;10.00;99.90;;;;;;5059709;28;20495;-70
2023/04/17 02:08:00;;;;;;;24.10;14.93;;;10.10;99.90;;;;;;5058212;28;20599;-70
2023/04/17 02:10:46;;;;;;;17.90;13.43;;;10.10;99.90;;;;;;5056506;28;20449;-69
2023/04/17 02:13:31;;;;;;;18.40;13.97;;;10.00;99.90;;;;;;5058277;28;20926;-69
2023/04/17 02:16:20;;;;;;;20.60;14.70;;;10.10;99.90;;;;;;5056575;28;20445;-70
2023/04/17 02:19:05;;;;;;;16.13;12.47;;;10.00;99.90;;;;;;5056975;28;20461;-69
2023/04/17 02:21:51;;;;;;;20.10;12.83;;;10.00;99.90;;;;;;5060519;28;20803;-67
2023/04/17 02:24:37;;;;;;;21.10;15.10;;;9.90;99.90;;;;;;5062559;28;20838;-71
2023/04/17 02:27:23;;;;;;;16.53;13.00;;;9.80;99.90;;;;;;5061691;28;20499;-71
2023/04/17 02:30:09;;;;;;;15.67;12.77;;;9.80;99.90;;;;;;5058587;28;20506;-71
2023/04/17 02:32:57;;;;;;;17.70;12.90;;;9.80;99.90;;;;;;5062719;28;20443;-70
2023/04/17 02:35:43;;;;;;;18.07;12.33;;;9.70;99.90;;;;;;5070180;28;20927;-70
2023/04/17 02:38:29;;;;;;;15.37;11.90;;;9.70;99.90;;;;;;5063620;28;20525;-70
2023/04/17 02:41:14;;;;;;;14.57;10.90;;;9.50;99.90;;;;;;5060767;28;20445;-71
2023/04/17 02:44:01;;;;;;;16.70;12.90;;;9.50;99.90;;;;;;5070044;28;20463;-70
2023/04/17 02:46:46;;;;;;;18.47;11.80;;;9.30;99.90;;;;;;5058801;28;21966;-70
2023/04/17 02:49:34;;;;;;;16.50;12.93;;;9.30;99.90;;;;;;5067356;28;20481;-69
2023/04/17 02:52:19;;;;;;;19.40;13.37;;;9.20;99.90;;;;;;5061429;28;20523;-68
2023/04/17 02:55:06;;;;;;;18.20;13.80;;;9.20;99.90;;;;;;5061649;28;20437;-70
2023/04/17 02:57:52;;;;;;;16.73;12.60;;;9.10;99.90;;;;;;5056754;28;20470;-68
2023/04/17 03:00:39;;;;;;;18.53;13.33;;;9.00;99.90;;;;;;5062350;28;20893;-68
2023/04/17 03:03:25;;;;;;;16.33;12.47;;;8.90;99.90;;;;;;5060363;28;20447;-67
2023/04/17 03:06:12;;;;;;;17.30;13.20;;;8.80;99.90;;;;;;5057394;28;20433;-68
2023/04/17 03:08:58;;;;;;;17.50;12.53;;;8.80;99.90;;;;;;5055414;28;20571;-70
2023/04/17 03:11:44;;;;;;;15.00;12.23;;;8.70;99.90;;;;;;5057556;28;20971;-69
2023/04/17 03:14:29;;;;;;;18.70;13.83;;;8.70;99.90;;;;;;5062392;28;20965;-68
2023/04/17 03:17:15;;;;;;;17.67;12.40;;;8.60;99.90;;;;;;5062561;28;20614;-68
2023/04/17 03:20:02;;;;;;;24.43;15.00;;;8.60;99.90;;;;;;5057428;28;20440;-68
2023/04/17 03:22:49;;;;;;;15.77;12.53;;;8.50;99.90;;;;;;5055172;28;20453;-68
2023/04/17 03:25:35;;;;;;;19.07;13.03;;;8.60;99.90;;;;;;5058708;28;20829;-67
2023/04/17 03:28:22;;;;;;;18.67;13.83;;;8.60;99.90;;;;;;5059471;28;20598;-68
2023/04/17 03:31:07;;;;;;;22.30;13.93;;;8.70;99.90;;;;;;5058901;28;20465;-69
2023/04/17 03:33:53;;;;;;;17.50;13.57;;;8.70;99.90;;;;;;5058110;28;20952;-68
2023/04/17 03:36:39;;;;;;;17.40;12.97;;;8.70;99.90;;;;;;5060751;28;20860;-68
2023/04/17 03:39:26;;;;;;;17.30;13.63;;;8.70;99.90;;;;;;5059183;28;20604;-67
2023/04/17 03:42:13;;;;;;;19.23;12.90;;;8.70;99.90;;;;;;5063408;28;21077;-68
2023/04/17 03:44:58;;;;;;;18.80;14.30;;;8.80;99.90;;;;;;5051600;28;20553;-68
2023/04/17 03:47:46;;;;;;;22.03;14.80;;;8.80;99.90;;;;;;5061606;28;20464;-68
2023/04/17 03:50:32;;;;;;;19.60;14.53;;;8.90;99.90;;;;;;5059012;28;20804;-68
2023/04/17 03:53:17;;;;;;;21.13;14.37;;;8.90;99.90;;;;;;5059510;28;20415;-68
2023/04/17 03:56:05;;;;;;;23.17;15.47;;;8.80;99.90;;;;;;5053830;28;20440;-68
2023/04/17 03:58:50;;;;;;;18.80;14.10;;;8.80;99.90;;;;;;5057486;28;20465;-68
2023/04/17 04:01:37;;;;;;;19.00;15.70;;;8.80;99.90;;;;;;5059468;28;20920;-67
2023/04/17 04:04:22;;;;;;;21.57;15.20;;;8.80;99.90;;;;;;5057468;28;20492;-68
2023/04/17 04:07:08;;;;;;;21.27;14.93;;;8.80;99.90;;;;;;5057549;28;20406;-68
2023/04/17 04:09:54;;;;;;;22.43;15.17;;;8.80;99.90;;;;;;5057975;28;20823;-68
2023/04/17 04:12:41;;;;;;;19.33;15.03;;;8.70;99.90;;;;;;5058267;28;20442;-68
2023/04/17 04:15:27;;;;;;;19.63;14.63;;;8.80;99.90;;;;;;5052726;28;20594;-70
2023/04/17 04:18:12;;;;;;;22.47;16.03;;;8.90;99.90;;;;;;5053119;28;21059;-67
2023/04/17 04:20:58;;;;;;;20.30;15.33;;;8.90;99.90;;;;;;5054226;28;20987;-68
2023/04/17 04:23:44;;;;;;;21.67;15.30;;;8.80;99.90;;;;;;5059252;28;20444;-68
2023/04/17 04:26:30;;;;;;;18.30;14.47;;;8.90;99.90;;;;;;5058182;28;21020;-68
2023/04/17 04:29:17;;;;;;;25.80;17.50;;;8.90;99.90;;;;;;5053425;28;20520;-68
2023/04/17 04:32:03;;;;;;;22.83;16.70;;;8.90;99.90;;;;;;5064595;28;20519;-68
2023/04/17 04:34:49;;;;;;;25.90;16.70;;;8.90;99.90;;;;;;5057286;28;20443;-68
2023/04/17 04:37:34;;;;;;;26.43;17.50;;;8.90;99.90;;;;;;5055433;28;20855;-68
2023/04/17 04:40:20;;;;;;;21.60;18.00;;;8.90;99.90;;;;;;5057733;28;20487;-70
2023/04/17 04:43:05;;;;;;;22.77;16.73;;;8.90;99.90;;;;;;5053021;28;20437;-68
2023/04/17 04:45:53;;;;;;;23.40;18.40;;;8.90;99.90;;;;;;5061606;28;20565;-68
2023/04/17 04:48:38;;;;;;;19.87;15.67;;;8.90;99.90;;;;;;5054791;28;20479;-69
2023/04/17 04:51:25;;;;;;;26.60;17.50;;;8.90;99.90;;;;;;5053027;28;20411;-67
2023/04/17 04:54:11;;;;;;;24.17;17.90;;;9.00;99.90;;;;;;5060312;28;20448;-68
2023/04/17 04:56:56;;;;;;;31.17;17.80;;;9.00;99.90;;;;;;5059067;28;20498;-68
2023/04/17 04:59:42;;;;;;;24.10;16.07;;;9.00;99.90;;;;;;5049856;28;20513;-68
2023/04/17 05:02:29;;;;;;;24.40;17.03;;;9.00;99.90;;;;;;5050869;28;20531;-68
2023/04/17 05:05:15;;;;;;;23.87;17.47;;;9.10;99.90;;;;;;5052897;28;20480;-68
2023/04/17 05:08:01;;;;;;;26.07;19.07;;;9.00;99.90;;;;;;5048796;28;20630;-69
2023/04/17 05:10:46;;;;;;;28.07;19.63;;;9.00;99.90;;;;;;5062030;28;20497;-67
2023/04/17 05:13:32;;;;;;;24.70;18.77;;;9.10;99.90;;;;;;5059646;28;20723;-68
2023/04/17 05:16:18;;;;;;;27.83;20.27;;;9.10;99.90;;;;;;5049445;28;20408;-67
2023/04/17 05:19:05;;;;;;;24.40;17.60;;;9.00;99.90;;;;;;5055897;28;20460;-70
2023/04/17 05:21:50;;;;;;;24.97;19.17;;;9.00;99.90;;;;;;5052213;28;20969;-68
2023/04/17 05:24:36;;;;;;;26.13;18.70;;;9.10;99.90;;;;;;5055851;28;20977;-68
2023/04/17 05:27:21;;;;;;;32.33;20.50;;;9.20;99.90;;;;;;5054446;28;20451;-68
2023/04/17 05:30:09;;;;;;;26.00;19.50;;;9.10;99.90;;;;;;5053645;28;20523;-70
2023/04/17 05:32:54;;;;;;;26.27;18.93;;;9.20;99.90;;;;;;5063736;28;20964;-67
2023/04/17 05:35:41;;;;;;;34.37;22.30;;;9.20;99.90;;;;;;5059894;28;20448;-69
2023/04/17 05:38:27;;;;;;;32.97;22.07;;;9.20;99.90;;;;;;5060834;28;20473;-70
2023/04/17 05:41:13;;;;;;;36.40;25.80;;;9.20;99.90;;;;;;5059937;28;20442;-68
2023/04/17 05:43:58;;;;;;;41.97;26.53;;;9.30;99.90;;;;;;5062464;28;20994;-69
2023/04/17 05:46:44;;;;;;;39.30;26.07;;;9.40;99.90;;;;;;5058526;28;20591;-68
2023/04/17 05:49:30;;;;;;;34.53;25.87;;;9.50;99.90;;;;;;5057191;28;21019;-67
2023/04/17 05:52:17;;;;;;;36.70;25.33;;;9.50;99.90;;;;;;5064119;28;20448;-68
2023/04/17 05:55:03;;;;;;;43.60;24.97;;;9.60;99.90;;;;;;5063900;28;20602;-68
2023/04/17 05:57:49;;;;;;;36.47;24.60;;;9.70;99.90;;;;;;5057728;28;20473;-68
2023/04/17 06:00:35;;;;;;;29.13;20.40;;;9.70;99.90;;;;;;5066963;28;20809;-68
2023/04/17 06:03:20;;;;;;;32.93;22.70;;;9.80;99.90;;;;;;5058351;28;20521;-67
2023/04/17 06:06:06;;;;;;;33.73;22.90;;;9.90;99.90;;;;;;5058976;28;22429;-68
2023/04/17 06:08:53;;;;;;;28.90;23.00;;;9.90;99.90;;;;;;5057702;28;21399;-68
2023/04/17 06:11:39;;;;;;;34.53;24.00;;;10.00;99.90;;;;;;5065740;28;20481;-68
2023/04/17 06:14:25;;;;;;;28.80;19.80;;;10.00;99.90;;;;;;5065396;28;20475;-68
2023/04/17 06:17:11;;;;;;;26.03;19.30;;;10.00;99.90;;;;;;5053581;28;20856;-68
2023/04/17 06:19:57;;;;;;;25.60;19.40;;;10.10;99.90;;;;;;5059196;28;20419;-68
2023/04/17 06:22:45;;;;;;;29.37;20.73;;;10.20;99.90;;;;;;5060057;28;20819;-68
2023/04/17 06:25:32;;;;;;;27.90;20.47;;;10.30;99.90;;;;;;5056281;28;20468;-68
2023/04/17 06:28:18;;;;;;;26.80;21.13;;;10.40;99.90;;;;;;5058122;28;20463;-68
2023/04/17 06:31:03;;;;;;;24.63;20.20;;;10.50;99.90;;;;;;5060405;28;20427;-69
2023/04/17 06:33:50;;;;;;;30.57;21.00;;;10.60;99.90;;;;;;5062377;28;20516;-68
2023/04/17 06:36:35;;;;;;;31.17;20.60;;;10.70;99.90;;;;;;5056876;28;20808;-67
2023/04/17 06:39:21;;;;;;;36.00;20.57;;;10.80;99.90;;;;;;5062969;28;20460;-70
2023/04/17 06:42:08;;;;;;;27.93;21.80;;;10.90;99.90;;;;;;5059612;28;20514;-68
2023/04/17 06:44:55;;;;;;;27.37;19.00;;;10.90;99.90;;;;;;5065974;28;20466;-69
2023/04/17 06:47:41;;;;;;;31.53;21.40;;;10.90;99.90;;;;;;5055694;28;20435;-68
2023/04/17 06:50:26;;;;;;;28.57;21.07;;;10.80;99.90;;;;;;5062618;28;20395;-69
2023/04/17 06:53:12;;;;;;;28.90;20.50;;;10.90;99.90;;;;;;5066681;28;20495;-67
2023/04/17 06:55:57;;;;;;;27.33;20.97;;;10.90;99.90;;;;;;5070357;28;20651;-68
2023/04/17 06:58:44;;;;;;;25.80;18.50;;;10.80;99.90;;;;;;5064251;28;20972;-68
2023/04/17 07:01:30;;;;;;;23.47;18.23;;;10.80;99.90;;;;;;5075783;28;20541;-68
2023/04/17 07:04:16;;;;;;;25.20;18.53;;;10.80;99.90;;;;;;5068110;28;20415;-69
2023/04/17 07:07:02;;;;;;;23.33;17.73;;;10.80;99.90;;;;;;5052169;28;20451;-68
2023/04/17 07:09:47;;;;;;;19.83;16.37;;;10.90;99.90;;;;;;5069337;28;20814;-67
2023/04/17 07:12:33;;;;;;;18.73;14.57;;;10.90;99.90;;;;;;5071036;28;20920;-68
2023/04/17 07:15:20;;;;;;;22.40;15.13;;;10.90;99.90;;;;;;5057443;28;20404;-69
2023/04/17 07:18:06;;;;;;;19.70;15.40;;;11.00;99.90;;;;;;5058845;28;20983;-67
2023/04/17 07:20:52;;;;;;;18.33;14.07;;;11.00;99.90;;;;;;5060974;28;20773;-68
2023/04/17 07:23:37;;;;;;;19.57;15.27;;;11.00;99.90;;;;;;5066534;28;20428;-69
2023/04/17 07:26:23;;;;;;;21.33;14.93;;;11.10;99.90;;;;;;5062425;28;20551;-67
2023/04/17 07:29:09;;;;;;;19.63;14.13;;;11.10;99.90;;;;;;5057165;28;20450;-68
2023/04/17 07:31:55;;;;;;;17.20;13.80;;;11.20;99.90;;;;;;5058613;28;20448;-67
2023/04/17 07:34:41;;;;;;;17.60;13.40;;;11.20;99.90;;;;;;5062616;28;20911;-67
2023/04/17 07:37:27;;;;;;;17.50;14.13;;;11.30;99.90;;;;;;5063736;28;20452;-68
2023/04/17 07:40:13;;;;;;;19.13;14.80;;;11.30;99.90;;;;;;5064142;28;20414;-68
2023/04/17 07:42:59;;;;;;;23.77;16.00;;;11.40;99.90;;;;;;5059823;28;20439;-68
2023/04/17 07:45:44;;;;;;;19.10;14.43;;;11.40;99.90;;;;;;5064267;28;20479;-68
2023/04/17 07:48:31;;;;;;;22.40;16.30;;;11.40;99.90;;;;;;5057583;28;20609;-68
2023/04/17 07:51:17;;;;;;;20.50;15.30;;;11.40;99.90;;;;;;5066540;28;20562;-68
2023/04/17 07:54:02;;;;;;;18.23;14.50;;;11.50;99.90;;;;;;5070860;28;20425;-68
2023/04/17 07:56:49;;;;;;;19.80;15.27;;;11.50;99.90;;;;;;5065049;28;20860;-68
2023/04/17 07:59:36;;;;;;;22.03;15.00;;;11.50;99.90;;;;;;5058165;28;20904;-67
2023/04/17 08:02:21;;;;;;;20.10;13.67;;;11.50;99.90;;;;;;5056044;28;20430;-68
2023/04/17 08:05:09;;;;;;;16.47;12.60;;;11.50;99.90;;;;;;5060220;28;20453;-68
2023/04/17 08:07:55;;;;;;;14.90;12.13;;;11.50;99.90;;;;;;5056448;28;20421;-68
2023/04/17 08:10:41;;;;;;;18.57;13.20;;;11.60;99.90;;;;;;5060727;28;20432;-69
2023/04/17 08:13:26;;;;;;;19.03;11.97;;;11.60;99.90;;;;;;5056762;28;20453;-67
2023/04/17 08:16:12;;;;;;;17.73;13.57;;;11.60;99.90;;;;;;5061056;28;20457;-68
2023/04/17 08:18:58;;;;;;;20.00;12.37;;;11.60;99.90;;;;;;5061154;28;20474;-68
2023/04/17 08:21:47;;;;;;;17.57;12.10;;;11.70;99.90;;;;;;5058257;28;20453;-68
2023/04/17 08:24:33;;;;;;;15.83;12.60;;;11.70;99.90;;;;;;5062616;28;20421;-67
2023/04/17 08:27:18;;;;;;;19.60;14.10;;;11.70;99.90;;;;;;5063723;28;20415;-68
2023/04/17 08:30:05;;;;;;;17.80;13.47;;;11.70;99.90;;;;;;5056959;28;20506;-68
2023/04/17 08:32:51;;;;;;;17.70;14.93;;;11.70;99.90;;;;;;5057115;28;20426;-67
2023/04/17 08:35:36;;;;;;;19.73;13.00;;;11.70;99.90;;;;;;5059642;28;20442;-67
2023/04/17 08:38:23;;;;;;;17.47;13.57;;;11.70;99.90;;;;;;5066520;28;20445;-68
2023/04/17 08:41:13;;;;;;;16.63;12.60;;;11.70;99.90;;;;;;5062612;28;20444;-67
2023/04/17 08:44:02;;;;;;;17.60;12.20;;;11.80;99.90;;;;;;5061257;28;20444;-68
2023/04/17 08:46:48;;;;;;;17.87;12.77;;;11.80;99.90;;;;;;5061333;28;20932;-67
2023/04/17 08:49:35;;;;;;;17.53;12.20;;;11.80;99.90;;;;;;5092984;22;20490;-90
2023/04/17 08:52:20;;;;;;;15.73;11.73;;;11.90;99.90;;;;;;5087591;28;20455;-90
2023/04/17 08:55:08;;;;;;;21.70;13.50;;;12.00;99.90;;;;;;5079450;28;20754;-91
2023/04/17 08:57:59;;;;;;;14.00;12.37;;;11.90;99.90;;;;;;5072614;28;20808;-89
2023/04/17 09:00:45;;;;;;;13.80;10.77;;;11.90;99.90;;;;;;5070901;28;20510;-90
2023/04/17 09:03:40;;;;;;;17.80;11.93;;;11.90;99.90;;;;;;5083602;28;20424;-90
2023/04/17 09:06:26;;;;;;;18.57;13.17;;;11.80;99.90;;;;;;5081656;28;20497;-89
2023/04/17 09:09:12;;;;;;;15.00;12.20;;;11.80;99.90;;;;;;5090420;28;20466;-89
2023/04/17 09:12:11;;;;;;;17.40;10.97;;;11.70;99.90;;;;;;5099218;28;20396;-90
2023/04/17 09:14:57;;;;;;;14.23;11.10;;;11.70;99.90;;;;;;5082584;28;20453;-90
2023/04/17 09:17:43;;;;;;;13.77;12.17;;;11.70;99.90;;;;;;5084611;28;20429;-89
2023/04/17 09:20:29;;;;;;;19.10;12.50;;;11.60;99.90;;;;;;5079958;28;20395;-90
2023/04/17 09:23:15;;;;;;;19.10;11.83;;;11.60;99.90;;;;;;5083001;28;20439;-90
2023/04/17 09:26:07;;;;;;;15.50;10.90;;;11.50;99.90;;;;;;5082027;28;20498;-90
2023/04/17 09:29:07;;;;;;;13.30;11.13;;;11.50;99.90;;;;;;5090138;28;20434;-89
2023/04/17 09:31:53;;;;;;;14.50;11.60;;;11.60;99.90;;;;;;5088165;28;20475;-90
2023/04/17 09:34:41;;;;;;;16.80;11.90;;;11.60;99.90;;;;;;5086675;28;20445;-89
2023/04/17 09:37:47;;;;;;;15.43;12.03;;;11.60;99.90;;;;;;5084003;28;20446;-89
2023/04/17 09:40:38;;;;;;;14.17;10.70;;;11.70;99.90;;;;;;5074803;28;20492;-89
2023/04/17 09:43:23;;;;;;;15.80;11.90;;;11.80;99.90;;;;;;5091117;28;20606;-89
2023/04/17 09:46:13;;;;;;;14.10;11.60;;;11.80;99.90;;;;;;5080835;28;20459;-88
2023/04/17 09:49:01;;;;;;;16.80;12.53;;;11.80;99.90;;;;;;5085807;28;21043;-90
2023/04/17 09:51:48;;;;;;;13.27;10.40;;;11.80;99.90;;;;;;5082745;28;20430;-90
2023/04/17 09:54:36;;;;;;;16.00;12.60;;;11.80;99.90;;;;;;5081923;28;20422;-90
2023/04/17 09:57:22;;;;;;;17.23;12.30;;;11.80;99.90;;;;;;5087083;28;20926;-89
2023/04/17 10:00:13;;;;;;;14.20;11.40;;;11.90;99.90;;;;;;5086115;28;20448;-87
2023/04/17 10:03:00;;;;;;;17.60;12.07;;;11.80;99.90;;;;;;5084995;28;20430;-88
2023/04/17 10:05:55;;;;;;;14.87;11.67;;;11.80;99.90;;;;;;5086297;28;20487;-89
2023/04/17 10:08:41;;;;;;;14.73;11.63;;;11.80;99.90;;;;;;5082521;28;20467;-89
2023/04/17 10:11:34;;;;;;;21.83;13.50;;;11.80;99.90;;;;;;5081913;28;20441;-90
2023/04/17 10:14:24;;;;;;;13.10;10.87;;;11.80;99.90;;;;;;5085428;28;20410;-90
2023/04/17 10:17:23;;;;;;;17.60;12.23;;;11.90;99.90;;;;;;5083972;28;20418;-89
2023/04/17 10:20:37;;;;;;;17.63;13.90;;;11.90;99.90;;;;;;5075605;28;20424;-90
2023/04/17 10:23:28;;;;;;;20.90;13.43;;;12.00;99.90;;;;;;5087774;28;20447;-89
2023/04/17 10:26:44;;;;;;;14.70;11.53;;;12.10;99.90;;;;;;5082519;28;20471;-88
2023/04/17 10:29:52;;;;;;;15.47;11.77;;;12.10;99.90;;;;;;5079385;28;20430;-89
2023/04/17 10:32:39;;;;;;;17.27;12.27;;;12.10;99.90;;;;;;5082494;28;20429;-89
2023/04/17 10:35:36;;;;;;;21.23;13.20;;;12.00;99.90;;;;;;5081396;28;20435;-89
2023/04/17 10:38:32;;;;;;;18.53;13.27;;;12.00;99.90;;;;;;5088121;28;20466;-89
2023/04/17 10:41:20;;;;;;;18.83;11.47;;;12.00;99.90;;;;;;5079567;28;20465;-89
2023/04/17 10:44:06;;;;;;;12.23;10.03;;;12.10;99.90;;;;;;5079786;28;20542;-89
2023/04/17 10:46:52;;;;;;;10.40;7.90;;;12.20;99.90;;;;;;5082282;28;20442;-89
2023/04/17 10:49:49;;;;;;;11.00;7.10;;;12.20;99.90;;;;;;5088215;28;20893;-89
2023/04/17 10:52:38;;;;;;;9.60;7.53;;;12.20;99.90;;;;;;5078325;28;20437;-89
2023/04/17 10:55:27;;;;;;;14.40;7.50;;;12.20;99.90;;;;;;5082057;28;20813;-88
2023/04/17 10:58:14;;;;;;;7.63;6.27;;;12.30;99.90;;;;;;5087815;28;20433;-89
2023/04/17 11:01:03;;;;;;;7.60;6.23;;;12.40;99.90;;;;;;5082141;28;20503;-89
2023/04/17 11:03:49;;;;;;;8.77;5.23;;;12.40;99.90;;;;;;5081182;28;20459;-89
2023/04/17 11:06:39;;;;;;;8.17;5.33;;;12.50;99.90;;;;;;5085211;28;21002;-89
2023/04/17 11:09:28;;;;;;;7.43;6.13;;;12.50;99.90;;;;;;5080199;28;21007;-89
2023/04/17 11:12:14;;;;;;;7.60;5.90;;;12.50;99.90;;;;;;5074554;28;20464;-90
2023/04/17 11:15:02;;;;;;;10.00;6.20;;;12.60;99.90;;;;;;5078521;28;20433;-89
2023/04/17 11:17:48;;;;;;;7.50;6.53;;;12.60;99.90;;;;;;5079689;28;20564;-89
2023/04/17 11:20:36;;;;;;;7.33;6.53;;;12.70;99.90;;;;;;5080654;28;20452;-88
2023/04/17 11:23:22;;;;;;;8.17;6.60;;;12.70;99.90;;;;;;5080956;28;20436;-89
2023/04/17 11:26:09;;;;;;;11.97;8.47;;;12.70;99.90;;;;;;5077866;28;20463;-89
2023/04/17 11:28:55;;;;;;;10.50;8.30;;;12.70;99.90;;;;;;5079329;28;21092;-89
2023/04/17 11:31:40;;;;;;;15.33;8.80;;;12.80;99.90;;;;;;5084953;28;20422;-89
2023/04/17 11:34:26;;;;;;;11.80;8.23;;;12.70;99.90;;;;;;5084586;28;20568;-89
2023/04/17 11:37:14;;;;;;;10.47;8.20;;;12.70;99.90;;;;;;5084677;28;20807;-89
2023/04/17 11:40:06;;;;;;;11.30;9.77;;;12.70;99.90;;;;;;5075582;28;20411;-89
2023/04/17 11:42:54;;;;;;;11.77;8.37;;;12.70;99.90;;;;;;5076331;28;20476;-89
2023/04/17 11:45:50;;;;;;;11.83;9.53;;;12.60;99.90;;;;;;5079968;28;20419;-90
2023/04/17 11:48:36;;;;;;;12.10;8.90;;;12.60;99.90;;;;;;5084198;28;20605;-89
2023/04/17 11:51:22;;;;;;;11.30;9.50;;;12.60;99.90;;;;;;5084415;28;20414;-88
2023/04/17 11:54:08;;;;;;;15.70;9.80;;;12.60;99.90;;;;;;5084396;28;20440;-89
2023/04/17 11:57:01;;;;;;;11.80;9.20;;;12.50;99.90;;;;;;5086582;28;20415;-89
2023/04/17 11:59:48;;;;;;;15.93;10.17;;;12.50;99.90;;;;;;5074811;28;20557;-89
2023/04/17 12:02:34;;;;;;;13.50;9.07;;;12.50;99.90;;;;;;5081202;28;20463;-88
2023/04/17 12:05:20;;;;;;;10.73;8.90;;;12.50;99.90;;;;;;5077527;28;20407;-89
2023/04/17 12:08:07;;;;;;;13.60;9.43;;;12.50;99.90;;;;;;5078488;28;20476;-89
2023/04/17 12:10:52;;;;;;;12.60;9.27;;;12.40;99.90;;;;;;5094356;28;20493;-88
2023/04/17 12:13:38;;;;;;;16.50;10.17;;;12.40;99.90;;;;;;5082161;28;20418;-88
2023/04/17 12:16:26;;;;;;;14.00;10.10;;;12.30;99.90;;;;;;5086548;28;20950;-89
2023/04/17 12:19:15;;;;;;;14.23;9.33;;;12.30;99.90;;;;;;5076264;28;20457;-89
2023/04/17 12:22:00;;;;;;;11.33;9.07;;;12.20;99.90;;;;;;5081137;28;20418;-89
2023/04/17 12:24:46;;;;;;;11.00;8.53;;;12.20;99.90;;;;;;5072049;28;20426;-89
2023/04/17 12:27:36;;;;;;;11.87;8.60;;;12.20;99.90;;;;;;5080061;28;20461;-89
2023/04/17 12:30:21;;;;;;;16.20;9.03;;;12.30;99.90;;;;;;5084433;28;20900;-89
2023/04/17 12:33:09;;;;;;;10.60;8.63;;;12.40;99.90;;;;;;5081992;28;20997;-89
2023/04/17 12:35:54;;;;;;;10.70;8.30;;;12.40;99.90;;;;;;5080473;28;20407;-89
2023/04/17 12:38:41;;;;;;;11.43;7.73;;;12.50;99.90;;;;;;5075512;28;20492;-90
2023/04/17 12:41:28;;;;;;;12.67;7.90;;;12.50;99.90;;;;;;5080194;28;20455;-90
2023/04/17 12:44:13;;;;;;;10.63;7.57;;;12.50;99.90;;;;;;5074651;28;20447;-89
2023/04/17 12:46:59;;;;;;;13.10;7.83;;;12.60;99.90;;;;;;5083670;28;20547;-89
2023/04/17 12:49:46;;;;;;;10.40;7.27;;;12.70;99.90;;;;;;5081588;28;20443;-89
2023/04/17 12:52:32;;;;;;;12.90;7.07;;;12.70;99.90;;;;;;5073707;28;20517;-89
2023/04/17 12:55:17;;;;;;;8.47;6.93;;;12.70;99.90;;;;;;5074826;28;20454;-89
2023/04/17 12:58:03;;;;;;;7.17;6.40;;;12.80;99.90;;;;;;5076225;28;20440;-88
2023/04/17 13:00:49;;;;;;;7.50;6.13;;;12.80;99.90;;;;;;5082691;28;20481;-89
2023/04/17 13:03:35;;;;;;;7.50;6.13;;;12.90;99.90;;;;;;5083246;28;20497;-89
2023/04/17 13:06:22;;;;;;;15.13;6.20;;;13.00;99.90;;;;;;5082765;28;20532;-89
2023/04/17 13:09:07;;;;;;;9.97;5.37;;;13.10;99.90;;;;;;5079900;28;20549;-89
2023/04/17 13:11:53;;;;;;;8.50;6.23;;;13.10;99.90;;;;;;5080205;28;20470;-91
2023/04/17 13:14:39;;;;;;;6.20;4.80;;;13.10;99.90;;;;;;5082028;28;20518;-91
2023/04/17 13:17:25;;;;;;;6.50;4.70;;;13.20;99.90;;;;;;5074877;28;20406;-91
2023/04/17 13:20:11;;;;;;;7.87;5.47;;;13.20;99.90;;;;;;5077035;28;20438;-91
2023/04/17 13:22:59;;;;;;;7.63;5.43;;;13.20;99.90;;;;;;5087747;28;20971;-91
2023/04/17 13:25:47;;;;;;;7.10;4.83;;;13.30;99.90;;;;;;5081310;28;20481;-90
2023/04/17 13:28:33;;;;;;;8.20;4.07;;;13.30;99.90;;;;;;5077734;28;21006;-91
2023/04/17 13:31:19;;;;;;;5.43;4.13;;;13.30;99.90;;;;;;5082660;28;20415;-91
2023/04/17 13:34:04;;;;;;;5.07;3.70;;;13.30;99.90;;;;;;5080919;28;20455;-90
2023/04/17 13:36:50;;;;;;;5.60;3.43;;;13.40;99.90;;;;;;5079495;28;20512;-90
2023/04/17 13:39:37;;;;;;;5.33;3.40;;;13.50;99.90;;;;;;5081181;28;20939;-91
2023/04/17 13:42:23;;;;;;;4.40;3.30;;;13.50;99.90;;;;;;5078675;28;20455;-91
2023/04/17 13:45:09;;;;;;;3.20;2.50;;;13.50;99.90;;;;;;5083998;28;20449;-90
2023/04/17 13:47:55;;;;;;;3.50;3.00;;;13.60;99.90;;;;;;5076003;28;20534;-91
2023/04/17 13:50:42;;;;;;;4.03;3.17;;;13.60;99.90;;;;;;5083511;28;20417;-91
2023/04/17 13:53:27;;;;;;;6.10;2.93;;;13.70;99.90;;;;;;5076770;28;20450;-91
2023/04/17 13:56:14;;;;;;;4.07;2.90;;;13.90;99.90;;;;;;5086795;28;20973;-91
2023/04/17 13:59:00;;;;;;;3.40;2.50;;;14.00;99.90;;;;;;5083528;28;20429;-91
2023/04/17 14:01:45;;;;;;;3.40;2.17;;;14.00;99.90;;;;;;5081767;28;20472;-90
2023/04/17 14:04:31;;;;;;;3.03;2.53;;;14.00;99.90;;;;;;5085176;28;20456;-91
2023/04/17 14:07:17;;;;;;;3.37;2.60;;;13.90;99.90;;;;;;5082560;28;20550;-91
2023/04/17 14:10:03;;;;;;;3.00;1.90;;;13.80;99.90;;;;;;5082913;28;20444;-90
2023/04/17 14:12:51;;;;;;;4.13;3.50;;;13.70;99.90;;;;;;5081264;28;20452;-91